46D

Carrington Municipal Airport

Carrington, North Dakota, USA
METAR K46D 181335Z AUTO 07012G17KT 10SM BKN050 BKN060 OVC065 M20/M23 A3027 RMK AO2
Observed Flight Rules
Jan-18 @ 13:35 UTC (27 minutes ago) Visual Flight Rules
Wind Visibility Clouds
70° at 12 knots
 Gusting to 17 knots
10 miles
  • Broken at 5,000' AGL
  • Broken at 6,000' AGL
  • Overcast at 6,500' AGL
Temperatures Readings
Current -20°C / -4°F
Dewpoint -23°C / -9°F
Humidity 77%
Altimeter 30.27" Hg
Pressure 1025.02 hPa
Elevation 490
METAR K46D 181335Z AUTO 07012G17KT 10SM BKN050 BKN060 OVC065 M20/M23 A3027 RMK AO2
Observed Flight Rules
Jan-18 @ 13:35 UTC
(27 minutes ago)
VFR
Wind Visibility
70° at 12 knots
 Gusting to 17 knots
10 miles
Clouds
  • Broken at 5,000' AGL
  • Broken at 6,000' AGL
  • Overcast at 6,500' AGL
Temperature Dewpoint
-20°C / -4°F -23°C / -9°F
Humidity Altimeter Pressure
77% 30.27" Hg 1025.02 hPa